sensor_id;sensor_type;location;lat;lon;timestamp;pressure;altitude;pressure_sealevel;temperature;humidity
28079;BME280;15388;42.238;24.684;2023-10-08T00:00:48;99709.19;;;14.52;60.41
28079;BME280;15388;42.238;24.684;2023-10-08T00:03:19;99713.50;;;14.45;60.51
28079;BME280;15388;42.238;24.684;2023-10-08T00:05:46;99705.72;;;14.34;60.79
28079;BME280;15388;42.238;24.684;2023-10-08T00:08:12;99702.69;;;14.29;60.51
28079;BME280;15388;42.238;24.684;2023-10-08T00:10:40;99703.28;;;14.22;60.39
28079;BME280;15388;42.238;24.684;2023-10-08T00:13:10;99702.25;;;14.15;60.41
28079;BME280;15388;42.238;24.684;2023-10-08T00:15:36;99694.47;;;14.04;60.73
28079;BME280;15388;42.238;24.684;2023-10-08T00:18:05;99689.66;;;14.07;60.74
28079;BME280;15388;42.238;24.684;2023-10-08T00:20:35;99690.47;;;14.08;61.28
28079;BME280;15388;42.238;24.684;2023-10-08T00:23:11;99691.78;;;14.04;61.29
28079;BME280;15388;42.238;24.684;2023-10-08T00:25:37;99686.09;;;13.98;61.92
28079;BME280;15388;42.238;24.684;2023-10-08T00:28:09;99695.06;;;13.97;62.98
28079;BME280;15388;42.238;24.684;2023-10-08T00:30:41;99697.94;;;13.96;63.92
28079;BME280;15388;42.238;24.684;2023-10-08T00:33:10;99690.63;;;13.80;64.92
28079;BME280;15388;42.238;24.684;2023-10-08T00:35:41;99692.13;;;13.82;64.85
28079;BME280;15388;42.238;24.684;2023-10-08T00:38:07;99694.72;;;13.74;65.04
28079;BME280;15388;42.238;24.684;2023-10-08T00:40:39;99696.03;;;13.52;65.93
28079;BME280;15388;42.238;24.684;2023-10-08T00:43:05;99697.72;;;13.53;66.61
28079;BME280;15388;42.238;24.684;2023-10-08T00:45:38;99693.94;;;13.45;66.36
28079;BME280;15388;42.238;24.684;2023-10-08T00:48:10;99676.34;;;13.24;67.37
28079;BME280;15388;42.238;24.684;2023-10-08T00:50:42;99679.09;;;13.15;68.27
28079;BME280;15388;42.238;24.684;2023-10-08T00:53:13;99670.72;;;12.99;69.02
28079;BME280;15388;42.238;24.684;2023-10-08T00:55:49;99672.06;;;12.85;69.85
28079;BME280;15388;42.238;24.684;2023-10-08T00:58:29;99662.59;;;12.73;70.97
28079;BME280;15388;42.238;24.684;2023-10-08T01:00:55;99665.97;;;12.65;71.56
28079;BME280;15388;42.238;24.684;2023-10-08T01:03:28;99665.47;;;12.52;72.29
28079;BME280;15388;42.238;24.684;2023-10-08T01:05:57;99671.69;;;12.42;72.71
28079;BME280;15388;42.238;24.684;2023-10-08T01:08:23;99667.78;;;12.37;72.55
28079;BME280;15388;42.238;24.684;2023-10-08T01:11:36;99669.03;;;12.32;72.19
28079;BME280;15388;42.238;24.684;2023-10-08T01:14:11;99661.34;;;12.29;72.16
28079;BME280;15388;42.238;24.684;2023-10-08T01:16:36;99662.06;;;12.21;72.50
28079;BME280;15388;42.238;24.684;2023-10-08T01:19:04;99656.28;;;12.16;72.85
28079;BME280;15388;42.238;24.684;2023-10-08T01:21:37;99658.97;;;12.16;72.99
28079;BME280;15388;42.238;24.684;2023-10-08T01:24:05;99660.94;;;12.14;73.90
28079;BME280;15388;42.238;24.684;2023-10-08T01:26:33;99658.97;;;11.96;74.77
28079;BME280;15388;42.238;24.684;2023-10-08T01:28:59;99663.47;;;11.96;75.28
28079;BME280;15388;42.238;24.684;2023-10-08T01:31:32;99649.03;;;11.89;75.72
28079;BME280;15388;42.238;24.684;2023-10-08T01:33:58;99646.94;;;11.82;76.22
28079;BME280;15388;42.238;24.684;2023-10-08T01:36:26;99642.44;;;11.83;76.88
28079;BME280;15388;42.238;24.684;2023-10-08T01:38:51;99632.47;;;11.85;76.33
28079;BME280;15388;42.238;24.684;2023-10-08T01:41:21;99631.78;;;11.83;76.73
28079;BME280;15388;42.238;24.684;2023-10-08T01:43:55;99634.03;;;11.78;76.87
28079;BME280;15388;42.238;24.684;2023-10-08T01:46:20;99635.47;;;11.62;77.70
28079;BME280;15388;42.238;24.684;2023-10-08T01:48:47;99631.25;;;11.69;77.04
28079;BME280;15388;42.238;24.684;2023-10-08T01:51:15;99624.50;;;11.75;76.92
28079;BME280;15388;42.238;24.684;2023-10-08T01:53:54;99594.06;;;11.68;76.64
28079;BME280;15388;42.238;24.684;2023-10-08T01:56:23;99621.66;;;11.96;76.08
28079;BME280;15388;42.238;24.684;2023-10-08T01:58:49;99623.31;;;12.17;74.88
28079;BME280;15388;42.238;24.684;2023-10-08T02:01:19;99627.16;;;12.43;73.90
28079;BME280;15388;42.238;24.684;2023-10-08T02:03:45;99624.00;;;12.57;73.20
28079;BME280;15388;42.238;24.684;2023-10-08T02:06:10;99622.53;;;12.73;72.89
28079;BME280;15388;42.238;24.684;2023-10-08T02:08:37;99619.00;;;12.72;72.88
28079;BME280;15388;42.238;24.684;2023-10-08T02:11:03;99616.63;;;12.69;73.44
28079;BME280;15388;42.238;24.684;2023-10-08T02:13:28;99623.41;;;12.64;73.75
28079;BME280;15388;42.238;24.684;2023-10-08T02:15:55;99618.41;;;12.51;74.64
28079;BME280;15388;42.238;24.684;2023-10-08T02:18:21;99623.50;;;12.44;75.50
28079;BME280;15388;42.238;24.684;2023-10-08T02:20:51;99621.31;;;12.29;76.08
28079;BME280;15388;42.238;24.684;2023-10-08T02:23:16;99605.31;;;12.29;75.70
28079;BME280;15388;42.238;24.684;2023-10-08T02:25:43;99599.66;;;12.32;74.67
28079;BME280;15388;42.238;24.684;2023-10-08T02:28:10;99597.63;;;12.44;72.91
28079;BME280;15388;42.238;24.684;2023-10-08T02:30:41;99596.69;;;12.45;72.63
28079;BME280;15388;42.238;24.684;2023-10-08T02:33:06;99595.91;;;12.53;71.38
28079;BME280;15388;42.238;24.684;2023-10-08T02:35:42;99591.22;;;12.65;70.24
28079;BME280;15388;42.238;24.684;2023-10-08T02:38:16;99588.84;;;12.62;71.63
28079;BME280;15388;42.238;24.684;2023-10-08T02:40:42;99594.19;;;12.62;72.17
28079;BME280;15388;42.238;24.684;2023-10-08T02:43:14;99587.47;;;12.58;72.44
28079;BME280;15388;42.238;24.684;2023-10-08T02:45:41;99595.56;;;12.66;72.22
28079;BME280;15388;42.238;24.684;2023-10-08T02:48:07;99602.91;;;12.64;72.24
28079;BME280;15388;42.238;24.684;2023-10-08T02:50:40;99583.75;;;12.69;71.73
28079;BME280;15388;42.238;24.684;2023-10-08T02:53:06;99591.56;;;12.80;71.03
28079;BME280;15388;42.238;24.684;2023-10-08T02:55:44;99590.13;;;12.86;70.86
28079;BME280;15388;42.238;24.684;2023-10-08T02:58:13;99591.81;;;12.87;71.14
28079;BME280;15388;42.238;24.684;2023-10-08T03:00:45;99594.56;;;12.95;70.34
28079;BME280;15388;42.238;24.684;2023-10-08T03:03:16;99606.94;;;12.96;70.29
28079;BME280;15388;42.238;24.684;2023-10-08T03:05:52;99604.63;;;13.02;69.75
28079;BME280;15388;42.238;24.684;2023-10-08T03:08:18;99607.75;;;12.97;69.65
28079;BME280;15388;42.238;24.684;2023-10-08T03:10:47;99602.97;;;13.01;69.26
28079;BME280;15388;42.238;24.684;2023-10-08T03:13:24;99607.31;;;13.02;68.75
28079;BME280;15388;42.238;24.684;2023-10-08T03:15:52;99597.78;;;12.99;68.69
28079;BME280;15388;42.238;24.684;2023-10-08T03:18:30;99605.13;;;13.15;67.95
28079;BME280;15388;42.238;24.684;2023-10-08T03:21:04;99607.34;;;13.20;67.52
28079;BME280;15388;42.238;24.684;2023-10-08T03:23:30;99609.84;;;13.21;67.29
28079;BME280;15388;42.238;24.684;2023-10-08T03:26:16;99606.41;;;13.29;66.96
28079;BME280;15388;42.238;24.684;2023-10-08T03:28:57;99598.94;;;13.33;66.16
28079;BME280;15388;42.238;24.684;2023-10-08T03:31:23;99605.28;;;13.50;64.82
28079;BME280;15388;42.238;24.684;2023-10-08T03:34:08;99600.63;;;13.52;64.49
28079;BME280;15388;42.238;24.684;2023-10-08T03:36:38;99603.88;;;13.64;64.44
28079;BME280;15388;42.238;24.684;2023-10-08T03:39:13;99598.53;;;13.64;64.45
28079;BME280;15388;42.238;24.684;2023-10-08T03:41:42;99587.78;;;13.56;64.69
28079;BME280;15388;42.238;24.684;2023-10-08T03:44:16;99599.50;;;13.55;65.24
28079;BME280;15388;42.238;24.684;2023-10-08T03:46:42;99594.66;;;13.40;66.31
28079;BME280;15388;42.238;24.684;2023-10-08T03:49:08;99597.25;;;13.32;66.37
28079;BME280;15388;42.238;24.684;2023-10-08T03:51:54;99590.78;;;13.34;66.04
28079;BME280;15388;42.238;24.684;2023-10-08T03:54:23;99587.78;;;13.56;64.33
28079;BME280;15388;42.238;24.684;2023-10-08T03:57:01;99601.97;;;13.74;62.85
28079;BME280;15388;42.238;24.684;2023-10-08T03:59:29;99593.75;;;13.94;61.90
28079;BME280;15388;42.238;24.684;2023-10-08T04:02:02;99593.34;;;14.07;61.43
28079;BME280;15388;42.238;24.684;2023-10-08T04:04:54;99598.47;;;14.00;62.06
28079;BME280;15388;42.238;24.684;2023-10-08T04:07:24;99600.34;;;13.82;63.37
28079;BME280;15388;42.238;24.684;2023-10-08T04:09:51;99597.78;;;13.54;64.85
28079;BME280;15388;42.238;24.684;2023-10-08T04:12:30;99596.69;;;13.46;64.82
28079;BME280;15388;42.238;24.684;2023-10-08T04:15:02;99595.31;;;13.42;64.76
28079;BME280;15388;42.238;24.684;2023-10-08T04:17:33;99598.78;;;13.53;64.04
28079;BME280;15388;42.238;24.684;2023-10-08T04:20:13;99595.06;;;13.63;63.43
28079;BME280;15388;42.238;24.684;2023-10-08T04:22:57;99589.53;;;13.65;62.41
28079;BME280;15388;42.238;24.684;2023-10-08T04:25:25;99596.34;;;13.86;60.92
28079;BME280;15388;42.238;24.684;2023-10-08T04:27:50;99597.09;;;13.96;59.85
28079;BME280;15388;42.238;24.684;2023-10-08T04:30:16;99581.44;;;14.36;57.78
28079;BME280;15388;42.238;24.684;2023-10-08T04:32:41;99586.34;;;14.49;57.11
28079;BME280;15388;42.238;24.684;2023-10-08T04:35:07;99589.75;;;14.68;56.40
28079;BME280;15388;42.238;24.684;2023-10-08T04:37:40;99579.44;;;14.82;55.64
28079;BME280;15388;42.238;24.684;2023-10-08T04:40:06;99595.88;;;14.95;55.11
28079;BME280;15388;42.238;24.684;2023-10-08T04:42:41;99588.03;;;14.94;55.22
28079;BME280;15388;42.238;24.684;2023-10-08T04:45:10;99586.16;;;15.02;54.89
28079;BME280;15388;42.238;24.684;2023-10-08T04:47:39;99599.28;;;15.14;54.75
28079;BME280;15388;42.238;24.684;2023-10-08T04:50:10;99598.09;;;15.17;54.62
28079;BME280;15388;42.238;24.684;2023-10-08T04:52:43;99596.25;;;15.17;54.32
28079;BME280;15388;42.238;24.684;2023-10-08T04:55:26;99602.63;;;15.16;54.41
28079;BME280;15388;42.238;24.684;2023-10-08T04:57:55;99614.03;;;15.18;54.24
28079;BME280;15388;42.238;24.684;2023-10-08T05:00:21;99607.97;;;15.24;54.21
28079;BME280;15388;42.238;24.684;2023-10-08T05:03:07;99601.13;;;15.22;54.43
28079;BME280;15388;42.238;24.684;2023-10-08T05:05:42;99595.75;;;15.22;54.29
28079;BME280;15388;42.238;24.684;2023-10-08T05:08:26;99592.75;;;15.25;53.93
28079;BME280;15388;42.238;24.684;2023-10-08T05:10:58;99596.44;;;15.32;53.70
28079;BME280;15388;42.238;24.684;2023-10-08T05:13:40;99581.84;;;15.35;53.44
28079;BME280;15388;42.238;24.684;2023-10-08T05:16:21;99589.59;;;15.46;52.75
28079;BME280;15388;42.238;24.684;2023-10-08T05:19:02;99585.53;;;15.67;50.97
28079;BME280;15388;42.238;24.684;2023-10-08T05:21:59;99577.47;;;15.84;50.10
28079;BME280;15388;42.238;24.684;2023-10-08T05:24:46;99572.59;;;16.04;49.29
28079;BME280;15388;42.238;24.684;2023-10-08T05:27:37;99567.69;;;16.24;48.16
28079;BME280;15388;42.238;24.684;2023-10-08T05:30:15;99569.28;;;16.42;47.59
28079;BME280;15388;42.238;24.684;2023-10-08T05:32:45;99572.91;;;16.58;47.38
28079;BME280;15388;42.238;24.684;2023-10-08T05:35:33;99568.34;;;16.66;46.45
28079;BME280;15388;42.238;24.684;2023-10-08T05:38:05;99572.50;;;16.77;46.10
28079;BME280;15388;42.238;24.684;2023-10-08T05:41:03;99570.72;;;16.93;45.73
28079;BME280;15388;42.238;24.684;2023-10-08T05:43:34;99570.16;;;17.06;45.76
28079;BME280;15388;42.238;24.684;2023-10-08T05:46:05;99575.19;;;17.09;45.37
28079;BME280;15388;42.238;24.684;2023-10-08T05:48:53;99580.66;;;17.16;45.08
28079;BME280;15388;42.238;24.684;2023-10-08T05:51:36;99585.94;;;17.33;44.43
28079;BME280;15388;42.238;24.684;2023-10-08T05:56:59;99591.47;;;17.54;43.79
28079;BME280;15388;42.238;24.684;2023-10-08T05:59:50;99595.47;;;17.59;43.82
28079;BME280;15388;42.238;24.684;2023-10-08T06:02:25;99598.31;;;17.80;43.93
28079;BME280;15388;42.238;24.684;2023-10-08T06:05:04;99597.84;;;17.92;43.48
28079;BME280;15388;42.238;24.684;2023-10-08T06:07:39;99598.22;;;17.89;43.37
28079;BME280;15388;42.238;24.684;2023-10-08T06:10:29;99603.44;;;18.05;43.11
28079;BME280;15388;42.238;24.684;2023-10-08T06:15:50;99598.47;;;18.32;42.44
28079;BME280;15388;42.238;24.684;2023-10-08T06:18:26;99603.28;;;18.37;42.49
28079;BME280;15388;42.238;24.684;2023-10-08T06:20:53;99600.03;;;18.42;43.17
28079;BME280;15388;42.238;24.684;2023-10-08T06:23:20;99595.56;;;18.49;43.26
28079;BME280;15388;42.238;24.684;2023-10-08T06:25:49;99582.38;;;18.54;43.64
28079;BME280;15388;42.238;24.684;2023-10-08T06:28:21;99572.97;;;18.65;43.66
28079;BME280;15388;42.238;24.684;2023-10-08T06:30:52;99583.34;;;18.83;43.37
28079;BME280;15388;42.238;24.684;2023-10-08T06:33:21;99573.19;;;18.86;43.44
28079;BME280;15388;42.238;24.684;2023-10-08T06:35:48;99584.13;;;18.99;43.14
28079;BME280;15388;42.238;24.684;2023-10-08T06:38:39;99573.53;;;19.13;42.86
28079;BME280;15388;42.238;24.684;2023-10-08T06:41:10;99579.16;;;19.18;43.13
28079;BME280;15388;42.238;24.684;2023-10-08T06:43:38;99581.34;;;19.29;43.21
28079;BME280;15388;42.238;24.684;2023-10-08T06:46:05;99576.94;;;19.43;43.27
28079;BME280;15388;42.238;24.684;2023-10-08T06:48:33;99579.72;;;19.57;43.39
28079;BME280;15388;42.238;24.684;2023-10-08T06:51:00;99569.63;;;19.66;42.98
28079;BME280;15388;42.238;24.684;2023-10-08T06:53:47;99581.22;;;19.88;43.65
28079;BME280;15388;42.238;24.684;2023-10-08T06:56:14;99568.44;;;20.04;43.08
28079;BME280;15388;42.238;24.684;2023-10-08T06:58:40;99564.78;;;20.18;42.38
28079;BME280;15388;42.238;24.684;2023-10-08T07:01:12;99564.28;;;20.36;42.40
28079;BME280;15388;42.238;24.684;2023-10-08T07:03:38;99564.56;;;20.55;41.91
28079;BME280;15388;42.238;24.684;2023-10-08T07:06:04;99558.63;;;20.80;39.33
28079;BME280;15388;42.238;24.684;2023-10-08T07:08:43;99555.13;;;21.00;38.62
28079;BME280;15388;42.238;24.684;2023-10-08T07:11:13;99540.41;;;21.09;38.45
28079;BME280;15388;42.238;24.684;2023-10-08T07:13:39;99549.78;;;21.27;38.65
28079;BME280;15388;42.238;24.684;2023-10-08T07:16:07;99545.00;;;21.43;38.00
28079;BME280;15388;42.238;24.684;2023-10-08T07:18:37;99548.53;;;21.63;37.23
28079;BME280;15388;42.238;24.684;2023-10-08T07:21:04;99540.38;;;21.70;37.39
28079;BME280;15388;42.238;24.684;2023-10-08T07:23:39;99545.38;;;21.94;37.28
28079;BME280;15388;42.238;24.684;2023-10-08T07:26:26;99548.03;;;22.21;36.59
28079;BME280;15388;42.238;24.684;2023-10-08T07:29:01;99539.63;;;22.36;35.70
28079;BME280;15388;42.238;24.684;2023-10-08T07:31:33;99529.09;;;22.53;34.74
28079;BME280;15388;42.238;24.684;2023-10-08T07:33:59;99534.94;;;22.63;34.65
28079;BME280;15388;42.238;24.684;2023-10-08T07:36:43;99533.38;;;22.81;34.20
28079;BME280;15388;42.238;24.684;2023-10-08T07:39:09;99521.63;;;22.94;33.50
28079;BME280;15388;42.238;24.684;2023-10-08T07:41:49;99493.84;;;22.99;32.88
28079;BME280;15388;42.238;24.684;2023-10-08T07:44:14;99519.53;;;23.22;32.81
28079;BME280;15388;42.238;24.684;2023-10-08T07:46:40;99529.44;;;23.41;32.65
28079;BME280;15388;42.238;24.684;2023-10-08T07:49:06;99526.75;;;23.60;33.29
28079;BME280;15388;42.238;24.684;2023-10-08T07:51:32;99510.72;;;23.77;32.76
28079;BME280;15388;42.238;24.684;2023-10-08T07:53:59;99515.94;;;23.98;31.44
28079;BME280;15388;42.238;24.684;2023-10-08T07:56:25;99525.81;;;24.11;31.20
28079;BME280;15388;42.238;24.684;2023-10-08T07:58:53;99513.53;;;24.27;30.77
28079;BME280;15388;42.238;24.684;2023-10-08T08:01:23;99510.28;;;24.37;30.35
28079;BME280;15388;42.238;24.684;2023-10-08T08:03:50;99506.56;;;24.50;30.45
28079;BME280;15388;42.238;24.684;2023-10-08T08:06:17;99495.00;;;24.54;29.71
28079;BME280;15388;42.238;24.684;2023-10-08T08:08:42;99495.34;;;24.58;29.99
28079;BME280;15388;42.238;24.684;2023-10-08T08:11:10;99493.03;;;24.74;29.83
28079;BME280;15388;42.238;24.684;2023-10-08T08:13:42;99498.63;;;24.79;29.66
28079;BME280;15388;42.238;24.684;2023-10-08T08:16:08;99507.22;;;24.95;29.30
28079;BME280;15388;42.238;24.684;2023-10-08T08:18:44;99493.88;;;25.05;28.87
28079;BME280;15388;42.238;24.684;2023-10-08T08:21:11;99488.69;;;25.15;28.70
28079;BME280;15388;42.238;24.684;2023-10-08T08:23:41;99486.19;;;25.26;28.33
28079;BME280;15388;42.238;24.684;2023-10-08T08:26:33;99497.44;;;25.29;27.82
28079;BME280;15388;42.238;24.684;2023-10-08T08:29:05;99479.94;;;25.37;28.04
28079;BME280;15388;42.238;24.684;2023-10-08T08:31:34;99490.94;;;25.42;27.67
28079;BME280;15388;42.238;24.684;2023-10-08T08:34:01;99477.66;;;25.34;27.31
28079;BME280;15388;42.238;24.684;2023-10-08T08:36:35;99469.03;;;25.49;28.05
28079;BME280;15388;42.238;24.684;2023-10-08T08:39:04;99471.19;;;25.59;27.73
28079;BME280;15388;42.238;24.684;2023-10-08T08:41:31;99487.00;;;25.86;27.44
28079;BME280;15388;42.238;24.684;2023-10-08T08:43:58;99475.78;;;25.82;27.30
28079;BME280;15388;42.238;24.684;2023-10-08T08:49:07;99472.09;;;25.89;27.30
28079;BME280;15388;42.238;24.684;2023-10-08T08:51:36;99463.19;;;25.93;27.00
28079;BME280;15388;42.238;24.684;2023-10-08T08:54:03;99469.00;;;25.97;27.10
28079;BME280;15388;42.238;24.684;2023-10-08T08:56:37;99471.13;;;25.95;27.59
28079;BME280;15388;42.238;24.684;2023-10-08T08:59:04;99455.69;;;26.01;27.29
28079;BME280;15388;42.238;24.684;2023-10-08T09:01:30;99459.81;;;26.15;27.39
28079;BME280;15388;42.238;24.684;2023-10-08T09:04:01;99449.47;;;26.29;27.05
28079;BME280;15388;42.238;24.684;2023-10-08T09:06:29;99440.22;;;26.30;26.86
28079;BME280;15388;42.238;24.684;2023-10-08T09:08:59;99456.44;;;26.37;26.95
28079;BME280;15388;42.238;24.684;2023-10-08T09:11:41;99431.94;;;26.54;27.23
28079;BME280;15388;42.238;24.684;2023-10-08T09:14:08;99436.25;;;26.67;26.51
28079;BME280;15388;42.238;24.684;2023-10-08T09:16:35;99425.16;;;26.57;26.31
28079;BME280;15388;42.238;24.684;2023-10-08T09:19:02;99431.47;;;26.75;26.99
28079;BME280;15388;42.238;24.684;2023-10-08T09:21:28;99426.75;;;26.87;26.14
28079;BME280;15388;42.238;24.684;2023-10-08T09:23:55;99396.53;;;26.77;25.85
28079;BME280;15388;42.238;24.684;2023-10-08T09:26:24;99417.16;;;26.84;26.02
28079;BME280;15388;42.238;24.684;2023-10-08T09:28:50;99421.78;;;26.84;26.03
28079;BME280;15388;42.238;24.684;2023-10-08T09:31:17;99447.78;;;27.04;26.27
28079;BME280;15388;42.238;24.684;2023-10-08T09:33:43;99415.03;;;27.04;26.15
28079;BME280;15388;42.238;24.684;2023-10-08T09:36:18;99413.66;;;27.24;26.08
28079;BME280;15388;42.238;24.684;2023-10-08T09:38:45;99412.06;;;27.45;25.86
28079;BME280;15388;42.238;24.684;2023-10-08T09:41:14;99416.13;;;27.42;25.61
28079;BME280;15388;42.238;24.684;2023-10-08T09:43:41;99409.19;;;27.34;26.13
28079;BME280;15388;42.238;24.684;2023-10-08T09:46:18;99407.84;;;27.37;26.06
28079;BME280;15388;42.238;24.684;2023-10-08T09:48:47;99413.97;;;27.44;25.96
28079;BME280;15388;42.238;24.684;2023-10-08T09:51:14;99397.22;;;27.58;26.24
28079;BME280;15388;42.238;24.684;2023-10-08T09:53:47;99401.28;;;27.78;25.72
28079;BME280;15388;42.238;24.684;2023-10-08T09:56:15;99383.59;;;27.63;26.17
28079;BME280;15388;42.238;24.684;2023-10-08T09:58:44;99393.56;;;27.69;25.78
28079;BME280;15388;42.238;24.684;2023-10-08T10:01:10;99381.97;;;27.62;25.82
28079;BME280;15388;42.238;24.684;2023-10-08T10:03:37;99379.44;;;27.78;25.46
28079;BME280;15388;42.238;24.684;2023-10-08T10:06:02;99399.78;;;27.87;25.62
28079;BME280;15388;42.238;24.684;2023-10-08T10:08:30;99388.84;;;27.87;25.27
28079;BME280;15388;42.238;24.684;2023-10-08T10:11:01;99378.28;;;27.74;25.70
28079;BME280;15388;42.238;24.684;2023-10-08T10:13:28;99370.69;;;27.76;25.94
28079;BME280;15388;42.238;24.684;2023-10-08T10:15:54;99379.09;;;27.96;25.72
28079;BME280;15388;42.238;24.684;2023-10-08T10:21:00;99361.28;;;28.21;25.60
28079;BME280;15388;42.238;24.684;2023-10-08T10:23:45;99374.31;;;28.09;25.84
28079;BME280;15388;42.238;24.684;2023-10-08T10:26:30;99368.94;;;28.19;25.93
28079;BME280;15388;42.238;24.684;2023-10-08T10:31:41;99343.41;;;28.36;25.87
28079;BME280;15388;42.238;24.684;2023-10-08T10:34:15;99338.97;;;28.63;26.07
28079;BME280;15388;42.238;24.684;2023-10-08T10:36:42;99333.88;;;28.77;25.39
28079;BME280;15388;42.238;24.684;2023-10-08T10:39:09;99344.69;;;28.56;25.44
28079;BME280;15388;42.238;24.684;2023-10-08T10:41:48;99325.38;;;28.40;25.97
28079;BME280;15388;42.238;24.684;2023-10-08T10:44:14;99345.69;;;28.44;26.26
28079;BME280;15388;42.238;24.684;2023-10-08T10:46:44;99330.66;;;28.47;26.03
28079;BME280;15388;42.238;24.684;2023-10-08T10:49:17;99318.78;;;28.36;26.13
28079;BME280;15388;42.238;24.684;2023-10-08T10:51:57;99351.72;;;28.46;25.79
28079;BME280;15388;42.238;24.684;2023-10-08T10:54:24;99316.56;;;28.66;26.47
28079;BME280;15388;42.238;24.684;2023-10-08T10:56:51;99311.50;;;28.85;26.16
28079;BME280;15388;42.238;24.684;2023-10-08T10:59:35;99312.78;;;28.77;25.73
28079;BME280;15388;42.238;24.684;2023-10-08T11:02:03;99311.44;;;28.80;26.13
28079;BME280;15388;42.238;24.684;2023-10-08T11:04:56;99301.59;;;28.84;26.01
28079;BME280;15388;42.238;24.684;2023-10-08T11:07:33;99301.06;;;28.82;25.98
28079;BME280;15388;42.238;24.684;2023-10-08T11:10:00;99304.34;;;28.84;25.71
28079;BME280;15388;42.238;24.684;2023-10-08T11:12:26;99297.22;;;28.78;25.75
28079;BME280;15388;42.238;24.684;2023-10-08T11:15:10;99294.41;;;28.72;25.85
28079;BME280;15388;42.238;24.684;2023-10-08T11:17:41;99273.25;;;29.01;25.91
28079;BME280;15388;42.238;24.684;2023-10-08T11:20:26;99270.59;;;29.11;25.90
28079;BME280;15388;42.238;24.684;2023-10-08T11:22:52;99277.75;;;29.28;25.27
28079;BME280;15388;42.238;24.684;2023-10-08T11:25:24;99276.06;;;29.16;25.33
28079;BME280;15388;42.238;24.684;2023-10-08T11:27:56;99261.31;;;29.28;25.63
28079;BME280;15388;42.238;24.684;2023-10-08T11:30:28;99277.53;;;29.34;25.50
28079;BME280;15388;42.238;24.684;2023-10-08T11:33:00;99270.06;;;29.19;25.39
28079;BME280;15388;42.238;24.684;2023-10-08T11:35:25;99271.69;;;29.10;25.28
28079;BME280;15388;42.238;24.684;2023-10-08T11:37:52;99256.38;;;29.19;25.44
28079;BME280;15388;42.238;24.684;2023-10-08T11:40:24;99261.19;;;28.96;25.70
28079;BME280;15388;42.238;24.684;2023-10-08T11:43:14;99258.88;;;29.26;25.94
28079;BME280;15388;42.238;24.684;2023-10-08T11:45:44;99269.56;;;29.33;25.44
28079;BME280;15388;42.238;24.684;2023-10-08T11:48:16;99258.06;;;29.36;25.47
28079;BME280;15388;42.238;24.684;2023-10-08T11:50:47;99241.59;;;29.31;25.29
28079;BME280;15388;42.238;24.684;2023-10-08T11:53:12;99260.47;;;29.17;25.32
28079;BME280;15388;42.238;24.684;2023-10-08T11:55:38;99236.84;;;29.00;25.77
28079;BME280;15388;42.238;24.684;2023-10-08T11:58:08;99245.97;;;29.21;25.38
28079;BME280;15388;42.238;24.684;2023-10-08T12:00:41;99242.44;;;29.36;25.57
28079;BME280;15388;42.238;24.684;2023-10-08T12:03:14;99223.91;;;29.65;24.98
28079;BME280;15388;42.238;24.684;2023-10-08T12:05:49;99226.91;;;29.58;25.20
28079;BME280;15388;42.238;24.684;2023-10-08T12:08:18;99229.09;;;29.56;24.85
28079;BME280;15388;42.238;24.684;2023-10-08T12:10:46;99224.19;;;29.63;24.96
28079;BME280;15388;42.238;24.684;2023-10-08T12:13:14;99218.16;;;29.66;25.45
28079;BME280;15388;42.238;24.684;2023-10-08T12:15:41;99220.09;;;29.86;24.74
28079;BME280;15388;42.238;24.684;2023-10-08T12:18:10;99218.19;;;29.87;24.31
28079;BME280;15388;42.238;24.684;2023-10-08T12:20:41;99215.41;;;29.82;24.99
28079;BME280;15388;42.238;24.684;2023-10-08T12:23:10;99224.72;;;29.70;24.89
28079;BME280;15388;42.238;24.684;2023-10-08T12:25:37;99222.47;;;29.52;24.81
28079;BME280;15388;42.238;24.684;2023-10-08T12:28:03;99218.91;;;29.46;25.09
28079;BME280;15388;42.238;24.684;2023-10-08T12:30:32;99212.03;;;29.38;24.93
28079;BME280;15388;42.238;24.684;2023-10-08T12:33:00;99196.72;;;29.47;25.33
28079;BME280;15388;42.238;24.684;2023-10-08T12:35:26;99206.94;;;29.62;25.17
28079;BME280;15388;42.238;24.684;2023-10-08T12:37:54;99204.47;;;29.71;25.00
28079;BME280;15388;42.238;24.684;2023-10-08T12:40:20;99199.25;;;29.85;24.66
28079;BME280;15388;42.238;24.684;2023-10-08T12:42:53;99206.63;;;29.74;24.34
28079;BME280;15388;42.238;24.684;2023-10-08T12:45:20;99206.38;;;29.60;24.62
28079;BME280;15388;42.238;24.684;2023-10-08T12:47:50;99192.94;;;29.80;24.61
28079;BME280;15388;42.238;24.684;2023-10-08T12:50:17;99185.53;;;30.01;24.35
28079;BME280;15388;42.238;24.684;2023-10-08T12:52:49;99194.59;;;29.91;24.16
28079;BME280;15388;42.238;24.684;2023-10-08T12:55:21;99187.47;;;30.06;24.32
28079;BME280;15388;42.238;24.684;2023-10-08T12:57:52;99194.03;;;30.10;24.51
28079;BME280;15388;42.238;24.684;2023-10-08T13:00:24;99198.44;;;29.95;24.18
28079;BME280;15388;42.238;24.684;2023-10-08T13:02:51;99190.75;;;29.82;24.03
28079;BME280;15388;42.238;24.684;2023-10-08T13:05:20;99194.59;;;29.86;24.11
28079;BME280;15388;42.238;24.684;2023-10-08T13:07:53;99189.66;;;29.88;24.52
28079;BME280;15388;42.238;24.684;2023-10-08T13:10:19;99185.28;;;29.97;24.23
28079;BME280;15388;42.238;24.684;2023-10-08T13:12:47;99180.91;;;30.22;24.13
28079;BME280;15388;42.238;24.684;2023-10-08T13:15:13;99173.75;;;29.85;24.14
28079;BME280;15388;42.238;24.684;2023-10-08T13:17:38;99175.69;;;29.95;24.50
28079;BME280;15388;42.238;24.684;2023-10-08T13:20:09;99183.09;;;29.94;24.52
28079;BME280;15388;42.238;24.684;2023-10-08T13:22:38;99172.94;;;29.84;25.05
28079;BME280;15388;42.238;24.684;2023-10-08T13:25:03;99180.88;;;29.81;24.78